createdAt,value
2017-09-23T00:00:44.915Z,32.23
2017-09-23T00:03:12.504Z,28.73
2017-09-23T00:05:40.159Z,37.77
2017-09-23T00:08:07.732Z,27.90
2017-09-23T00:10:35.318Z,28.47
2017-09-23T00:13:02.925Z,26.17
2017-09-23T00:15:30.835Z,28.93
2017-09-23T00:17:58.468Z,25.17
2017-09-23T00:20:26.061Z,28.27
2017-09-23T00:22:53.636Z,27.00
2017-09-23T00:25:21.249Z,24.70
2017-09-23T00:27:49.154Z,24.43
2017-09-23T00:30:16.804Z,26.57
2017-09-23T00:32:44.400Z,31.60
2017-09-23T00:35:11.980Z,27.97
2017-09-23T00:37:39.713Z,29.47
2017-09-23T00:40:07.296Z,27.83
2017-09-23T00:42:34.922Z,28.53
2017-09-23T00:45:02.801Z,28.70
2017-09-23T00:47:30.379Z,27.80
2017-09-23T00:49:58.325Z,25.43
2017-09-23T00:52:25.906Z,26.80
2017-09-23T00:54:53.855Z,27.00
2017-09-23T00:57:21.456Z,29.37
2017-09-23T00:59:49.030Z,30.70
2017-09-23T01:02:16.633Z,33.60
2017-09-23T01:04:44.215Z,31.27
2017-09-23T01:07:11.827Z,35.30
2017-09-23T01:09:39.431Z,26.57
2017-09-23T01:12:07.013Z,30.43
2017-09-23T01:14:34.959Z,33.80
2017-09-23T01:17:02.542Z,32.70
2017-09-23T01:19:30.160Z,30.33
2017-09-23T01:21:57.745Z,33.77
2017-09-23T01:24:25.340Z,27.77
2017-09-23T01:26:52.948Z,38.00
2017-09-23T01:29:20.531Z,26.27
2017-09-23T01:31:48.148Z,31.40
2017-09-23T01:34:16.055Z,30.70
2017-09-23T01:36:43.930Z,30.70
2017-09-23T01:39:11.512Z,34.33
2017-09-23T01:41:39.459Z,31.30
2017-09-23T01:44:07.044Z,28.97
2017-09-23T01:46:34.663Z,28.60
2017-09-23T01:49:02.260Z,30.70
2017-09-23T01:51:29.875Z,29.73
2017-09-23T01:53:57.483Z,30.77
2017-09-23T01:56:25.067Z,34.40
2017-09-23T01:58:52.688Z,33.00
2017-09-23T02:01:20.269Z,35.50
2017-09-23T02:03:48.121Z,37.50
2017-09-23T02:06:15.740Z,33.10
2017-09-23T02:08:43.312Z,30.80
2017-09-23T02:11:11.208Z,27.97
2017-09-23T02:13:38.790Z,31.87
2017-09-23T02:16:06.393Z,32.83
2017-09-23T02:18:33.997Z,33.40
2017-09-23T02:21:01.861Z,34.77
2017-09-23T02:23:29.476Z,43.50
2017-09-23T02:25:57.055Z,34.53
2017-09-23T02:28:24.650Z,31.80
2017-09-23T02:30:52.254Z,30.40
2017-09-23T02:33:19.824Z,34.27
2017-09-23T02:35:47.449Z,30.60
2017-09-23T02:38:15.048Z,35.23
2017-09-23T02:40:42.619Z,33.33
2017-09-23T02:43:10.258Z,34.53
2017-09-23T02:45:37.843Z,29.27
2017-09-23T02:48:05.464Z,33.90
2017-09-23T02:50:33.047Z,27.73
2017-09-23T02:53:00.634Z,34.57
2017-09-23T02:55:28.253Z,31.33
2017-09-23T02:57:55.830Z,31.43
2017-09-23T03:00:23.450Z,30.50
2017-09-23T03:02:51.036Z,28.53
2017-09-23T03:05:18.612Z,34.00
2017-09-23T03:07:46.223Z,32.17
2017-09-23T03:10:13.803Z,27.53
2017-09-23T03:12:41.412Z,29.83
2017-09-23T03:15:09.004Z,35.10
2017-09-23T03:17:36.584Z,29.80
2017-09-23T03:20:04.207Z,30.90
2017-09-23T03:22:31.792Z,27.63
2017-09-23T03:24:59.403Z,32.47
2017-09-23T03:27:27.113Z,30.70
2017-09-23T03:29:54.712Z,27.13
2017-09-23T03:32:22.355Z,26.60
2017-09-23T03:34:49.971Z,26.90
2017-09-23T03:37:17.600Z,43.03
2017-09-23T03:39:45.172Z,28.37
2017-09-23T03:42:13.003Z,38.33
2017-09-23T03:44:40.613Z,32.20
2017-09-23T03:47:08.229Z,28.90
2017-09-23T03:49:35.852Z,29.50
2017-09-23T03:52:03.431Z,27.80
2017-09-23T03:54:31.011Z,25.73
2017-09-23T03:56:58.889Z,32.40
2017-09-23T03:59:26.465Z,29.97
2017-09-23T04:01:54.084Z,32.33
2017-09-23T04:04:21.667Z,25.63
2017-09-23T04:06:49.247Z,30.93
2017-09-23T04:09:16.854Z,26.97
2017-09-23T04:11:44.443Z,29.93
2017-09-23T04:14:12.079Z,42.50
2017-09-23T04:16:39.980Z,27.33
2017-09-23T04:19:07.555Z,25.90
2017-09-23T04:21:35.409Z,26.27
2017-09-23T04:24:03.128Z,34.70
2017-09-23T04:26:30.738Z,25.13
2017-09-23T04:28:58.323Z,26.57
2017-09-23T04:31:25.898Z,28.57
2017-09-23T04:33:53.511Z,32.43
2017-09-23T04:36:21.096Z,26.80
2017-09-23T04:38:49.301Z,26.00
2017-09-23T04:41:16.909Z,30.03
2017-09-23T04:43:44.522Z,25.70
2017-09-23T04:46:12.100Z,31.80
2017-09-23T04:48:39.716Z,32.63
2017-09-23T04:51:07.340Z,31.43
2017-09-23T04:53:34.933Z,28.33
2017-09-23T04:56:02.548Z,27.30
2017-09-23T04:58:30.141Z,28.33
2017-09-23T05:00:57.729Z,25.20
2017-09-23T05:03:25.331Z,26.60
2017-09-23T05:05:52.928Z,29.57
2017-09-23T05:08:20.552Z,32.53
2017-09-23T05:10:48.472Z,28.07
2017-09-23T05:13:16.338Z,25.00
2017-09-23T05:15:43.975Z,25.50
2017-09-23T05:18:11.868Z,30.30
2017-09-23T05:20:39.488Z,28.20
2017-09-23T05:23:07.071Z,24.30
2017-09-23T05:25:34.664Z,31.27
2017-09-23T05:28:02.268Z,27.30
2017-09-23T05:30:29.861Z,28.23
2017-09-23T05:32:57.479Z,32.23
2017-09-23T05:35:25.061Z,32.83
2017-09-23T05:37:52.644Z,26.10
2017-09-23T05:40:20.265Z,27.43
2017-09-23T05:42:47.847Z,30.83
2017-09-23T05:45:15.753Z,31.67
2017-09-23T05:47:43.338Z,28.00
2017-09-23T05:50:10.920Z,31.00
2017-09-23T05:52:38.839Z,28.30
2017-09-23T05:55:06.431Z,29.67
2017-09-23T05:57:34.056Z,32.73
2017-09-23T06:00:01.936Z,28.03
2017-09-23T06:02:29.551Z,26.50
2017-09-23T06:04:57.464Z,31.20
2017-09-23T06:07:25.062Z,37.23
2017-09-23T06:09:52.689Z,26.87
2017-09-23T06:12:20.265Z,27.10
2017-09-23T06:14:47.839Z,31.00
2017-09-23T06:17:15.434Z,31.83
2017-09-23T06:19:43.021Z,31.70
2017-09-23T06:22:10.632Z,32.80
2017-09-23T06:24:38.214Z,31.70
2017-09-23T06:27:06.124Z,31.97
2017-09-23T06:29:33.744Z,32.70
2017-09-23T06:32:01.332Z,32.57
2017-09-23T06:34:28.956Z,32.63
2017-09-23T06:36:56.579Z,32.40
2017-09-23T06:39:24.162Z,30.33
2017-09-23T06:41:52.103Z,32.87
2017-09-23T06:44:19.778Z,36.73
2017-09-23T06:46:47.406Z,34.80
2017-09-23T06:49:14.996Z,36.10
2017-09-23T06:51:42.577Z,32.03
2017-09-23T06:54:10.183Z,40.43
2017-09-23T06:56:38.084Z,46.37
2017-09-23T06:59:05.728Z,36.70
2017-09-23T07:01:33.321Z,36.73
2017-09-23T07:04:00.897Z,45.50
2017-09-23T07:06:28.506Z,39.07
2017-09-23T07:08:56.097Z,34.43
2017-09-23T07:11:23.720Z,42.03
2017-09-23T07:13:51.339Z,37.27
2017-09-23T07:16:18.927Z,48.73
2017-09-23T07:18:47.544Z,37.30
2017-09-23T07:21:15.135Z,35.53
2017-09-23T07:23:42.768Z,38.70
2017-09-23T07:26:10.362Z,45.57
2017-09-23T07:28:37.997Z,38.63
2017-09-23T07:31:05.624Z,37.97
2017-09-23T07:33:33.238Z,32.80
2017-09-23T07:36:00.879Z,28.00
2017-09-23T07:38:28.475Z,29.67
2017-09-23T07:40:56.069Z,33.73
2017-09-23T07:43:23.680Z,24.03
2017-09-23T07:45:51.284Z,29.53
2017-09-23T07:48:18.918Z,30.00
2017-09-23T07:50:46.540Z,31.07
2017-09-23T07:53:14.137Z,23.00
2017-09-23T07:55:41.748Z,22.70
2017-09-23T07:58:09.350Z,23.07
2017-09-23T08:00:36.974Z,26.53
2017-09-23T08:03:04.564Z,25.80
2017-09-23T08:05:32.150Z,17.50
2017-09-23T08:07:59.759Z,23.53
2017-09-23T08:10:27.340Z,20.43
2017-09-23T08:12:54.960Z,21.60
2017-09-23T08:15:22.560Z,16.57
2017-09-23T08:17:50.148Z,20.20
2017-09-23T08:20:17.755Z,19.47
2017-09-23T08:22:45.341Z,19.00
2017-09-23T08:25:13.341Z,19.90
2017-09-23T08:27:40.920Z,17.97
2017-09-23T08:30:08.499Z,16.90
2017-09-23T08:32:36.180Z,23.93
2017-09-23T08:35:03.763Z,22.23
2017-09-23T08:37:31.385Z,19.77
2017-09-23T08:39:58.950Z,16.67
2017-09-23T08:42:26.531Z,17.77
2017-09-23T08:44:54.186Z,28.67
2017-09-23T08:47:21.779Z,19.00
2017-09-23T08:49:49.415Z,16.23
2017-09-23T08:52:16.996Z,20.90
2017-09-23T08:54:44.578Z,20.17
2017-09-23T08:57:12.185Z,19.00
2017-09-23T08:59:39.784Z,17.93
2017-09-23T09:02:07.674Z,17.07
2017-09-23T09:04:35.253Z,17.17
2017-09-23T09:07:02.840Z,16.83
2017-09-23T09:09:30.445Z,17.30
2017-09-23T09:11:58.324Z,16.47
2017-09-23T09:14:26.241Z,20.40
2017-09-23T09:16:53.829Z,16.97
2017-09-23T09:19:21.720Z,18.53
2017-09-23T09:21:49.356Z,22.30
2017-09-23T09:24:17.263Z,27.70
2017-09-23T09:26:44.884Z,19.90
2017-09-23T09:29:12.463Z,21.83
2017-09-23T09:31:39.574Z,20.40
2017-09-23T09:34:07.442Z,20.60
2017-09-23T09:36:35.023Z,16.97
2017-09-23T09:39:02.697Z,20.23
2017-09-23T09:41:30.279Z,17.40
2017-09-23T09:43:57.855Z,17.17
2017-09-23T09:46:25.462Z,16.30
2017-09-23T09:48:53.060Z,22.10
2017-09-23T09:51:20.690Z,19.10
2017-09-23T09:53:48.299Z,17.13
2017-09-23T09:56:15.935Z,21.93
2017-09-23T09:58:43.552Z,29.60
2017-09-23T10:01:11.140Z,17.33
2017-09-23T10:03:38.774Z,15.27
2017-09-23T10:06:06.708Z,15.60
2017-09-23T10:08:34.304Z,13.10
2017-09-23T10:11:01.984Z,14.27
2017-09-23T10:13:39.406Z,18.63
2017-09-23T10:16:07.096Z,13.03
2017-09-23T10:18:34.689Z,15.57
2017-09-23T10:21:02.630Z,15.10
2017-09-23T10:23:30.245Z,14.07
2017-09-23T10:25:58.152Z,14.63
2017-09-23T10:28:25.780Z,15.30
2017-09-23T10:30:53.800Z,15.93
2017-09-23T10:33:21.412Z,15.90
2017-09-23T10:35:49.934Z,15.73
2017-09-23T10:38:17.504Z,15.53
2017-09-23T10:40:45.458Z,17.83
2017-09-23T10:43:13.027Z,15.10
2017-09-23T10:45:40.603Z,16.00
2017-09-23T10:48:08.215Z,16.33
2017-09-23T10:50:35.800Z,14.30
2017-09-23T10:53:03.412Z,16.97
2017-09-23T10:55:30.996Z,15.93
2017-09-23T10:57:58.575Z,20.87
2017-09-23T11:00:26.187Z,18.10
2017-09-23T11:02:53.769Z,16.70
2017-09-23T11:05:21.387Z,33.63
2017-09-23T11:07:48.967Z,21.13
2017-09-23T11:10:16.543Z,22.07
2017-09-23T11:12:44.151Z,20.30
2017-09-23T11:15:11.742Z,19.37
2017-09-23T11:17:39.396Z,19.40
2017-09-23T11:20:06.973Z,18.03
2017-09-23T11:22:34.809Z,17.90
2017-09-23T11:25:02.676Z,21.60
2017-09-23T11:27:30.268Z,17.90
2017-09-23T11:29:57.893Z,17.20
2017-09-23T11:32:25.483Z,29.50
2017-09-23T11:34:53.060Z,19.53
2017-09-23T11:37:20.993Z,17.87
2017-09-23T11:39:48.611Z,16.40
2017-09-23T11:42:16.234Z,17.40
2017-09-23T11:44:43.809Z,19.30
2017-09-23T11:47:11.407Z,17.87
2017-09-23T11:49:39.044Z,17.77
2017-09-23T11:52:06.642Z,17.60
2017-09-23T11:54:34.253Z,15.20
2017-09-23T11:57:01.832Z,25.53
2017-09-23T11:59:29.403Z,24.93
2017-09-23T12:01:57.024Z,18.60
2017-09-23T12:04:24.607Z,16.43
2017-09-23T12:06:52.223Z,16.70
2017-09-23T12:09:19.808Z,19.10
2017-09-23T12:11:47.397Z,17.27
2017-09-23T12:14:15.012Z,17.97
2017-09-23T12:16:42.601Z,16.23
2017-09-23T12:19:10.186Z,18.40
2017-09-23T12:21:37.805Z,16.47
2017-09-23T12:24:05.384Z,16.60
2017-09-23T12:26:32.969Z,17.27
2017-09-23T12:29:00.606Z,19.30
2017-09-23T12:31:28.180Z,24.27
2017-09-23T12:33:55.768Z,17.60
2017-09-23T12:36:23.380Z,14.20
2017-09-23T12:38:51.897Z,18.13
2017-09-23T12:41:20.046Z,14.00
2017-09-23T12:43:47.624Z,21.73
2017-09-23T12:46:15.209Z,16.10
2017-09-23T12:48:43.065Z,15.90
2017-09-23T12:51:10.650Z,16.60
2017-09-23T12:53:38.294Z,19.43
2017-09-23T12:56:05.918Z,17.63
2017-09-23T12:58:33.496Z,20.87
2017-09-23T13:01:01.111Z,15.50
2017-09-23T13:03:28.688Z,17.13
2017-09-23T13:05:56.307Z,14.90
2017-09-23T13:08:23.883Z,17.70
2017-09-23T13:10:51.458Z,16.10
2017-09-23T13:13:19.066Z,14.57
2017-09-23T13:15:46.648Z,16.40
2017-09-23T13:18:14.292Z,24.30
2017-09-23T13:20:41.924Z,18.00
2017-09-23T13:23:09.518Z,16.87
2017-09-23T13:25:37.120Z,15.43
2017-09-23T13:28:04.694Z,17.20
2017-09-23T13:30:32.308Z,18.10
2017-09-23T13:32:59.883Z,16.00
2017-09-23T13:35:27.469Z,15.10
2017-09-23T13:37:55.074Z,23.57
2017-09-23T13:40:22.656Z,14.73
2017-09-23T13:42:50.580Z,17.83
2017-09-23T13:45:18.179Z,15.10
2017-09-23T13:47:45.764Z,19.00
2017-09-23T13:50:13.371Z,12.30
2017-09-23T13:52:40.965Z,13.30
2017-09-23T13:55:08.767Z,17.37
2017-09-23T13:57:36.555Z,20.33
2017-09-23T14:00:04.152Z,12.93
2017-09-23T14:02:31.888Z,14.60
2017-09-23T14:05:10.987Z,16.33
2017-09-23T14:07:39.475Z,13.80
2017-09-23T14:10:07.167Z,18.20
2017-09-23T14:12:34.765Z,15.00
2017-09-23T14:15:02.370Z,13.97
2017-09-23T14:17:30.153Z,13.47
2017-09-23T14:19:57.761Z,16.70
2017-09-23T14:22:25.348Z,18.90
2017-09-23T14:24:53.251Z,20.47
2017-09-23T14:27:20.863Z,17.20
2017-09-23T14:29:48.460Z,15.43
2017-09-23T14:32:16.140Z,14.30
2017-09-23T14:34:43.750Z,19.13
2017-09-23T14:37:11.328Z,15.90
2017-09-23T14:39:38.956Z,14.60
2017-09-23T14:42:06.544Z,16.33
2017-09-23T14:44:34.165Z,15.93
2017-09-23T14:47:01.751Z,28.50
2017-09-23T14:49:29.666Z,18.63
2017-09-23T14:51:57.359Z,20.40
2017-09-23T14:54:25.036Z,14.80
2017-09-23T14:56:52.668Z,19.70
2017-09-23T14:59:20.264Z,14.13
2017-09-23T15:01:47.912Z,16.63
2017-09-23T15:04:15.863Z,23.57
2017-09-23T15:06:43.572Z,15.10
2017-09-23T15:09:11.236Z,15.70
2017-09-23T15:11:38.828Z,16.00
2017-09-23T15:14:06.570Z,15.50
2017-09-23T15:16:34.371Z,19.70
2017-09-23T15:19:01.998Z,17.70
2017-09-23T15:21:29.637Z,15.97
2017-09-23T15:23:57.230Z,16.97
2017-09-23T15:26:24.824Z,16.83
2017-09-23T15:28:53.612Z,16.03
2017-09-23T15:31:21.205Z,16.73
2017-09-23T15:33:48.866Z,18.37
2017-09-23T15:36:16.443Z,18.90
2017-09-23T15:38:44.052Z,15.37
2017-09-23T15:41:11.692Z,19.30
2017-09-23T15:43:39.442Z,17.73
2017-09-23T15:46:07.099Z,17.70
2017-09-23T15:48:34.684Z,20.53
2017-09-23T15:51:02.275Z,21.93
2017-09-23T15:53:29.896Z,17.97
2017-09-23T15:55:57.483Z,18.93
2017-09-23T15:58:25.087Z,28.33
2017-09-23T16:00:52.684Z,18.93
2017-09-23T16:03:20.416Z,20.10
2017-09-23T16:05:49.116Z,20.43
2017-09-23T16:08:16.703Z,22.27
2017-09-23T16:10:44.352Z,25.63
2017-09-23T16:13:11.928Z,19.20
2017-09-23T16:15:39.530Z,21.87
2017-09-23T16:21:31.352Z,22.90
2017-09-23T16:24:05.677Z,25.23
2017-09-23T16:26:33.267Z,27.67
2017-09-23T16:29:00.846Z,29.10
2017-09-23T16:31:28.472Z,32.60
2017-09-23T16:33:56.143Z,25.93
2017-09-23T16:36:24.111Z,28.20
2017-09-23T16:38:51.689Z,27.13
2017-09-23T16:41:19.275Z,26.00
2017-09-23T16:43:47.302Z,27.43
2017-09-23T16:46:14.876Z,23.67
2017-09-23T16:48:42.545Z,24.30
2017-09-23T16:51:10.159Z,27.83
2017-09-23T16:53:37.754Z,30.97
2017-09-23T16:56:05.517Z,24.47
2017-09-23T16:58:33.188Z,28.93
2017-09-23T17:01:00.812Z,28.80
2017-09-23T17:03:28.391Z,29.87
2017-09-23T17:05:55.976Z,25.50
2017-09-23T17:08:23.928Z,31.00
2017-09-23T17:10:51.505Z,35.57
2017-09-23T17:13:19.123Z,31.63
2017-09-23T17:15:46.725Z,32.20
2017-09-23T17:18:14.300Z,30.47
2017-09-23T17:20:42.149Z,26.90
2017-09-23T17:23:09.740Z,28.93
2017-09-23T17:25:37.362Z,28.07
2017-09-23T17:28:05.085Z,34.33
2017-09-23T17:30:32.999Z,28.17
2017-09-23T17:33:00.777Z,30.60
2017-09-23T17:35:28.410Z,33.30
2017-09-23T17:37:56.032Z,38.57
2017-09-23T17:40:23.611Z,31.53
2017-09-23T17:42:51.219Z,31.60
2017-09-23T17:45:18.829Z,28.77
2017-09-23T17:47:46.407Z,33.67
2017-09-23T17:50:14.024Z,28.80
2017-09-23T17:52:41.619Z,34.00
2017-09-23T17:55:09.525Z,33.63
2017-09-23T17:57:37.136Z,34.40
2017-09-23T18:00:04.874Z,34.77
2017-09-23T18:02:32.495Z,41.80
2017-09-23T18:05:00.205Z,27.63
2017-09-23T18:07:27.865Z,33.80
2017-09-23T18:09:55.507Z,37.00
2017-09-23T18:12:23.119Z,36.17
2017-09-23T18:14:50.768Z,30.47
2017-09-23T18:17:18.356Z,40.30
2017-09-23T18:19:45.947Z,42.70
2017-09-23T18:22:13.549Z,55.83
2017-09-23T18:24:41.136Z,44.30
2017-09-23T18:27:08.747Z,38.73
2017-09-23T18:29:36.315Z,36.60
2017-09-23T18:32:03.903Z,39.83
2017-09-23T18:34:31.530Z,34.90
2017-09-23T18:36:59.244Z,29.93
2017-09-23T18:39:26.908Z,44.37
2017-09-23T18:41:54.517Z,32.80
2017-09-23T18:44:22.096Z,34.83
2017-09-23T18:46:49.771Z,31.83
2017-09-23T18:49:17.706Z,43.70
2017-09-23T18:51:45.346Z,35.23
2017-09-23T18:54:12.946Z,34.87
2017-09-23T18:56:40.771Z,36.57
2017-09-23T18:59:08.376Z,33.63
2017-09-23T19:01:35.954Z,46.87
2017-09-23T19:04:03.576Z,54.13
2017-09-23T19:06:31.147Z,40.50
2017-09-23T19:08:58.732Z,36.00
2017-09-23T19:11:26.335Z,37.50
2017-09-23T19:13:53.915Z,39.37
2017-09-23T19:16:21.545Z,35.63
2017-09-23T19:18:49.489Z,35.77
2017-09-23T19:21:17.325Z,37.23
2017-09-23T19:23:44.932Z,35.87
2017-09-23T19:26:12.534Z,32.83
2017-09-23T19:28:40.425Z,38.63
2017-09-23T19:31:08.008Z,32.83
2017-09-23T19:33:35.622Z,41.10
2017-09-23T19:36:03.293Z,41.03
2017-09-23T19:38:30.941Z,39.07
2017-09-23T19:40:58.641Z,32.43
2017-09-23T19:43:26.267Z,35.33
2017-09-23T19:45:53.848Z,33.17
2017-09-23T19:48:21.467Z,50.83
2017-09-23T19:50:49.062Z,38.50
2017-09-23T19:53:16.675Z,48.80
2017-09-23T19:55:44.273Z,40.47
2017-09-23T19:58:11.893Z,39.03
2017-09-23T20:00:39.536Z,42.80
2017-09-23T20:03:07.299Z,51.90
2017-09-23T20:05:34.930Z,39.43
2017-09-23T20:08:02.554Z,44.23
2017-09-23T20:10:30.150Z,36.80
2017-09-23T20:12:57.977Z,42.50
2017-09-23T20:15:25.578Z,36.57
2017-09-23T20:17:53.246Z,40.87
2017-09-23T20:20:20.827Z,43.23
2017-09-23T20:22:48.432Z,37.70
2017-09-23T20:25:16.360Z,39.40
2017-09-23T20:27:43.986Z,33.27
2017-09-23T20:30:11.652Z,37.73
2017-09-23T20:32:39.551Z,38.30
2017-09-23T20:35:07.199Z,33.63
2017-09-23T20:37:34.840Z,32.40
2017-09-23T20:40:02.567Z,41.33
2017-09-23T20:42:30.181Z,32.90
2017-09-23T20:44:57.760Z,36.17
2017-09-23T20:47:25.635Z,33.63
2017-09-23T20:49:53.322Z,35.97
2017-09-23T20:52:20.943Z,32.80
2017-09-23T20:54:48.633Z,31.90
2017-09-23T20:57:16.233Z,30.63
2017-09-23T20:59:43.857Z,34.17
2017-09-23T21:02:11.469Z,34.60
2017-09-23T21:04:39.040Z,35.80
2017-09-23T21:07:06.682Z,36.30
2017-09-23T21:09:34.301Z,32.93
2017-09-23T21:12:01.890Z,30.10
2017-09-23T21:14:29.496Z,26.80
2017-09-23T21:16:57.088Z,28.23
2017-09-23T21:19:24.714Z,33.43
2017-09-23T21:21:52.308Z,29.97
2017-09-23T21:24:20.004Z,30.67
2017-09-23T21:26:47.655Z,28.93
2017-09-23T21:29:15.264Z,31.20
2017-09-23T21:31:42.902Z,30.37
2017-09-23T21:34:10.635Z,27.73
2017-09-23T21:36:38.217Z,26.70
2017-09-23T21:39:06.532Z,27.07
2017-09-23T21:41:34.132Z,32.33
2017-09-23T21:44:01.793Z,28.17
2017-09-23T21:46:29.476Z,30.20
2017-09-23T21:48:57.063Z,25.80
2017-09-23T21:51:24.699Z,31.47
2017-09-23T21:53:52.308Z,26.73
2017-09-23T21:56:20.075Z,29.23
2017-09-23T21:58:47.968Z,29.10
2017-09-23T22:01:15.836Z,27.23
2017-09-23T22:03:43.706Z,33.70
2017-09-23T22:06:11.284Z,26.90
2017-09-23T22:08:38.915Z,30.53
2017-09-23T22:11:06.490Z,27.80
2017-09-23T22:13:34.068Z,26.53
2017-09-23T22:16:01.704Z,23.67
2017-09-23T22:18:29.304Z,27.67
2017-09-23T22:20:56.915Z,27.40
2017-09-23T22:23:24.494Z,32.00
2017-09-23T22:25:52.074Z,29.60
2017-09-23T22:28:19.676Z,28.23
2017-09-23T22:30:47.253Z,24.67
2017-09-23T22:33:14.873Z,27.80
2017-09-23T22:35:42.455Z,31.57
2017-09-23T22:38:10.376Z,29.53
2017-09-23T22:40:37.988Z,28.63
2017-09-23T22:43:05.562Z,28.00
2017-09-23T22:45:33.175Z,30.13
2017-09-23T22:48:00.803Z,28.17
2017-09-23T22:50:28.384Z,34.00
2017-09-23T22:52:55.996Z,39.13
2017-09-23T22:55:23.577Z,31.70
2017-09-23T22:57:51.186Z,28.00
2017-09-23T23:00:18.844Z,29.33
2017-09-23T23:02:46.799Z,27.87
2017-09-23T23:05:14.518Z,24.80
2017-09-23T23:07:42.428Z,26.47
2017-09-23T23:10:10.249Z,27.90
2017-09-23T23:12:38.090Z,26.00
2017-09-23T23:15:05.680Z,27.63
2017-09-23T23:17:33.284Z,26.67
2017-09-23T23:20:00.905Z,30.20
2017-09-23T23:22:28.710Z,26.57
2017-09-23T23:24:56.305Z,25.07
2017-09-23T23:27:23.923Z,28.70
2017-09-23T23:29:51.543Z,26.67
2017-09-23T23:32:19.159Z,23.70
2017-09-23T23:34:46.736Z,25.40
2017-09-23T23:37:14.328Z,28.60
2017-09-23T23:39:42.251Z,23.10
2017-09-23T23:42:09.841Z,21.03
2017-09-23T23:44:37.465Z,20.73
2017-09-23T23:47:05.042Z,20.43
2017-09-23T23:49:32.624Z,22.43
2017-09-23T23:52:00.218Z,17.40
2017-09-23T23:54:27.938Z,18.63
2017-09-23T23:56:55.568Z,16.43
2017-09-23T23:59:23.450Z,16.03
